Time;durP1;ratioP1;P1;durP2;ratioP2;P2;SDS_P1;SDS_P2;PMS_P1;PMS_P2;Temp;Humidity;BMP_temperature;BMP_pressure;BME280_temperature;BME280_humidity;BME280_pressure;Samples;Min_cycle;Max_cycle;Signal;HPM_P1;HPM_P2
2024/03/19 00:00:45;;;;;;;6.47;4.35;;;10.00;99.90;;;;;;4977662;28;20037;-81
2024/03/19 00:03:11;;;;;;;7.45;4.47;;;9.90;99.90;;;;;;4995569;28;20027;-80
2024/03/19 00:05:37;;;;;;;8.27;4.18;;;9.90;99.90;;;;;;4977934;28;20039;-81
2024/03/19 00:08:02;;;;;;;7.28;4.45;;;9.80;99.90;;;;;;4995723;28;20072;-81
2024/03/19 00:10:28;;;;;;;6.32;4.35;;;9.70;99.90;;;;;;4978113;28;20037;-81
2024/03/19 00:12:54;;;;;;;7.05;4.68;;;9.70;99.90;;;;;;4978416;28;20026;-80
2024/03/19 00:15:19;;;;;;;5.63;3.72;;;9.70;99.90;;;;;;4995539;28;20023;-81
2024/03/19 00:17:46;;;;;;;5.90;3.97;;;9.70;99.90;;;;;;4977487;28;20495;-81
2024/03/19 00:20:12;;;;;;;6.55;4.13;;;9.70;99.90;;;;;;4978237;28;20161;-82
2024/03/19 00:22:37;;;;;;;7.88;4.70;;;9.60;99.90;;;;;;4994792;28;20054;-82
2024/03/19 00:25:07;;;;;;;8.25;4.78;;;9.70;99.90;;;;;;4978244;28;20033;-82
2024/03/19 00:27:33;;;;;;;5.45;3.50;;;9.70;99.90;;;;;;4977666;28;20030;-82
2024/03/19 00:29:59;;;;;;;5.72;3.72;;;9.70;99.90;;;;;;4995168;28;20034;-82
2024/03/19 00:32:28;;;;;;;7.63;4.20;;;9.60;99.90;;;;;;4977358;28;20033;-81
2024/03/19 00:34:53;;;;;;;7.85;4.47;;;9.50;99.90;;;;;;4977201;28;20052;-83
2024/03/19 00:37:19;;;;;;;13.07;5.75;;;9.60;99.90;;;;;;4994981;28;20109;-82
2024/03/19 00:39:45;;;;;;;11.25;6.05;;;9.50;99.90;;;;;;4994626;28;20034;-82
2024/03/19 00:42:11;;;;;;;13.82;5.72;;;9.60;99.90;;;;;;4995016;28;20027;-82
2024/03/19 00:44:37;;;;;;;13.45;6.95;;;9.60;99.90;;;;;;4977259;28;20034;-82
2024/03/19 00:47:03;;;;;;;15.13;8.05;;;9.60;99.90;;;;;;4994804;28;20114;-82
2024/03/19 00:49:28;;;;;;;17.02;8.40;;;9.60;99.90;;;;;;4977274;28;20053;-82
2024/03/19 00:51:54;;;;;;;18.55;9.02;;;9.60;99.90;;;;;;4977716;28;20121;-82
2024/03/19 00:54:20;;;;;;;15.60;7.90;;;9.50;99.90;;;;;;4977541;28;20464;-82
2024/03/19 00:56:45;;;;;;;15.35;7.47;;;9.50;99.90;;;;;;4977039;28;20080;-81
2024/03/19 00:59:12;;;;;;;16.60;6.53;;;9.40;99.90;;;;;;4977944;28;20031;-81
2024/03/19 01:01:37;;;;;;;10.45;5.60;;;9.50;99.90;;;;;;4977333;28;20034;-81
2024/03/19 01:04:05;;;;;;;10.65;6.70;;;9.40;99.90;;;;;;4977282;28;20023;-81
2024/03/19 01:06:40;;;;;;;12.70;6.35;;;9.40;99.90;;;;;;4976743;28;20038;-81
2024/03/19 01:09:12;;;;;;;12.90;6.28;;;9.40;99.90;;;;;;4976811;28;20125;-81
2024/03/19 01:11:41;;;;;;;10.18;5.63;;;9.30;99.90;;;;;;4976782;28;20360;-81
2024/03/19 01:14:07;;;;;;;14.32;6.00;;;9.40;99.90;;;;;;4977033;28;20038;-81
2024/03/19 01:16:33;;;;;;;10.00;5.07;;;9.30;99.90;;;;;;4976983;28;20030;-81
2024/03/19 01:18:59;;;;;;;9.90;5.93;;;9.30;99.90;;;;;;4994384;28;20030;-81
2024/03/19 01:21:25;;;;;;;9.60;5.65;;;9.30;99.90;;;;;;4977150;28;20384;-81
2024/03/19 01:23:51;;;;;;;8.52;5.57;;;9.30;99.90;;;;;;4977488;28;20027;-81
2024/03/19 01:26:18;;;;;;;13.40;5.63;;;9.30;99.90;;;;;;4977144;28;20026;-82
2024/03/19 01:28:43;;;;;;;10.38;5.82;;;9.30;99.90;;;;;;4993944;28;20031;-81
2024/03/19 01:31:09;;;;;;;10.57;5.60;;;9.30;99.90;;;;;;4976947;28;20489;-81
2024/03/19 01:33:34;;;;;;;8.65;4.63;;;9.40;99.90;;;;;;4976752;28;20030;-81
2024/03/19 01:36:00;;;;;;;8.18;4.65;;;9.40;99.90;;;;;;4976961;28;20500;-82
2024/03/19 01:38:26;;;;;;;8.23;5.13;;;9.40;99.90;;;;;;4977135;28;20373;-81
2024/03/19 01:40:52;;;;;;;9.50;5.20;;;9.20;99.90;;;;;;4994106;28;20045;-82
2024/03/19 01:43:21;;;;;;;10.10;5.40;;;9.20;99.90;;;;;;4977206;28;20109;-81
2024/03/19 01:46:06;;;;;;;10.07;5.40;;;9.30;99.90;;;;;;4976330;28;20212;-83
2024/03/19 01:48:33;;;;;;;6.85;4.30;;;9.30;99.90;;;;;;4983007;28;20526;-82
2024/03/19 01:50:59;;;;;;;12.77;4.63;;;9.30;99.90;;;;;;4977167;28;20467;-83
2024/03/19 01:53:26;;;;;;;8.82;5.00;;;9.20;99.90;;;;;;4994385;28;20027;-82
2024/03/19 01:55:53;;;;;;;9.57;5.13;;;9.10;99.90;;;;;;4993904;28;20026;-81
2024/03/19 01:58:21;;;;;;;9.27;4.75;;;9.10;99.90;;;;;;4977126;28;20035;-81
2024/03/19 02:00:46;;;;;;;10.07;5.10;;;9.00;99.90;;;;;;4976241;28;20497;-83
2024/03/19 02:03:13;;;;;;;7.85;4.80;;;9.10;99.90;;;;;;4994070;28;20030;-83
2024/03/19 02:05:39;;;;;;;8.50;4.90;;;8.90;99.90;;;;;;4976337;28;20039;-83
2024/03/19 02:08:05;;;;;;;8.35;4.68;;;8.90;99.90;;;;;;4977255;28;20030;-84
2024/03/19 02:10:30;;;;;;;10.70;4.97;;;8.90;99.90;;;;;;4993692;28;20026;-82
2024/03/19 02:12:56;;;;;;;8.95;4.57;;;8.90;99.90;;;;;;4977054;28;20027;-83
2024/03/19 02:15:21;;;;;;;6.40;4.22;;;9.00;99.90;;;;;;4976983;28;20089;-84
2024/03/19 02:17:47;;;;;;;10.27;4.38;;;8.90;99.90;;;;;;4976350;28;20078;-83
2024/03/19 02:20:14;;;;;;;9.85;4.45;;;8.90;99.90;;;;;;4978243;28;20484;-84
2024/03/19 02:22:46;;;;;;;7.18;4.10;;;9.00;99.90;;;;;;4980031;28;20026;-83
2024/03/19 02:25:12;;;;;;;6.32;3.95;;;9.00;99.90;;;;;;4997506;28;20026;-82
2024/03/19 02:27:40;;;;;;;6.60;4.28;;;9.00;99.90;;;;;;4996758;28;20034;-81
2024/03/19 02:30:07;;;;;;;7.40;4.25;;;9.10;99.90;;;;;;4997340;28;20029;-82
2024/03/19 02:32:32;;;;;;;6.95;4.38;;;9.10;99.90;;;;;;4997173;28;20028;-81
2024/03/19 02:34:58;;;;;;;6.05;4.13;;;9.00;99.90;;;;;;4979568;28;20133;-81
2024/03/19 02:37:23;;;;;;;9.55;4.53;;;9.00;99.90;;;;;;4979905;28;20038;-81
2024/03/19 02:39:49;;;;;;;6.82;3.72;;;9.00;99.90;;;;;;4979545;28;20196;-81
2024/03/19 02:42:14;;;;;;;7.82;4.07;;;8.90;99.90;;;;;;4979603;28;20472;-82
2024/03/19 02:44:40;;;;;;;7.93;3.53;;;8.80;99.90;;;;;;4979313;28;20030;-81
2024/03/19 02:47:06;;;;;;;6.68;4.18;;;8.90;99.90;;;;;;4979761;28;20066;-81
2024/03/19 02:49:31;;;;;;;6.88;4.10;;;8.80;99.90;;;;;;4979422;28;20468;-81
2024/03/19 02:51:57;;;;;;;5.93;3.85;;;8.80;99.90;;;;;;4979567;28;20049;-82
2024/03/19 02:54:22;;;;;;;8.65;3.47;;;8.80;99.90;;;;;;4996745;28;20037;-82
2024/03/19 02:56:48;;;;;;;6.38;3.40;;;8.90;99.90;;;;;;4979462;28;20027;-82
2024/03/19 02:59:13;;;;;;;5.35;3.55;;;8.80;99.90;;;;;;4996925;28;20034;-83
2024/03/19 03:01:39;;;;;;;5.20;3.40;;;8.70;99.90;;;;;;4996216;28;20038;-84
2024/03/19 03:04:06;;;;;;;6.88;3.30;;;8.80;99.90;;;;;;4979724;28;20502;-84
2024/03/19 03:06:32;;;;;;;5.40;3.47;;;8.70;99.90;;;;;;4979298;28;20035;-81
2024/03/19 03:08:58;;;;;;;4.75;3.03;;;8.80;99.90;;;;;;4996675;28;20033;-84
2024/03/19 03:11:24;;;;;;;5.13;3.05;;;8.70;99.90;;;;;;4979214;28;20026;-84
2024/03/19 03:13:49;;;;;;;4.72;3.33;;;8.70;99.90;;;;;;4979037;28;20081;-84
2024/03/19 03:16:15;;;;;;;5.00;3.28;;;8.70;99.90;;;;;;4979654;28;20026;-84
2024/03/19 03:18:40;;;;;;;5.80;3.13;;;8.70;99.90;;;;;;4978872;28;20108;-82
2024/03/19 03:21:06;;;;;;;3.67;3.03;;;8.70;99.90;;;;;;4978944;28;20045;-82
2024/03/19 03:23:32;;;;;;;5.30;2.88;;;8.70;99.90;;;;;;4996614;28;20030;-82
2024/03/19 03:25:58;;;;;;;4.63;3.10;;;8.70;99.90;;;;;;4996332;28;20028;-82
2024/03/19 03:28:23;;;;;;;5.50;3.20;;;8.80;99.90;;;;;;4996201;28;20037;-82
2024/03/19 03:30:49;;;;;;;5.05;2.85;;;8.80;99.90;;;;;;4978475;28;20375;-81
2024/03/19 03:33:15;;;;;;;8.35;3.20;;;8.60;99.90;;;;;;4978702;28;20022;-80
2024/03/19 03:35:40;;;;;;;4.70;2.60;;;8.60;99.90;;;;;;4974979;28;20456;-81
2024/03/19 03:38:06;;;;;;;4.82;2.75;;;8.50;99.90;;;;;;4976895;28;20118;-81
2024/03/19 03:40:31;;;;;;;4.15;2.67;;;8.50;99.90;;;;;;4976044;28;20035;-81
2024/03/19 03:42:59;;;;;;;5.90;2.97;;;8.40;99.90;;;;;;4975037;28;20415;-80
2024/03/19 03:45:25;;;;;;;4.72;3.08;;;8.40;99.90;;;;;;4975525;28;20049;-80
2024/03/19 03:47:50;;;;;;;5.85;2.75;;;8.30;99.90;;;;;;4974895;28;20030;-79
2024/03/19 03:50:16;;;;;;;6.20;2.47;;;8.30;99.90;;;;;;4975496;28;20059;-79
2024/03/19 03:52:42;;;;;;;4.95;2.78;;;8.20;99.90;;;;;;4974292;28;20408;-79
2024/03/19 03:55:09;;;;;;;4.15;2.50;;;8.20;99.90;;;;;;4976106;28;20081;-81
2024/03/19 03:57:37;;;;;;;4.10;2.70;;;8.20;99.90;;;;;;4974675;28;20422;-81
2024/03/19 04:00:10;;;;;;;6.45;2.60;;;8.20;99.90;;;;;;4975230;28;20050;-80
2024/03/19 04:02:36;;;;;;;3.30;2.65;;;8.20;99.90;;;;;;4975235;28;20047;-81
2024/03/19 04:05:02;;;;;;;3.92;2.65;;;8.20;99.90;;;;;;4975020;28;20035;-80
2024/03/19 04:07:28;;;;;;;3.20;2.55;;;8.10;99.90;;;;;;4976058;28;20495;-80
2024/03/19 04:09:53;;;;;;;5.07;3.08;;;8.10;99.90;;;;;;4974502;28;20110;-80
2024/03/19 04:12:19;;;;;;;6.30;3.35;;;8.10;99.90;;;;;;4975129;28;20034;-81
2024/03/19 04:14:45;;;;;;;5.03;3.10;;;8.00;99.90;;;;;;4975210;28;20034;-81
2024/03/19 04:17:12;;;;;;;4.55;3.20;;;8.00;99.90;;;;;;4974968;28;20121;-81
2024/03/19 04:19:38;;;;;;;6.90;2.97;;;8.10;99.90;;;;;;4974425;28;20031;-80
2024/03/19 04:22:03;;;;;;;7.68;3.03;;;8.10;99.90;;;;;;4974547;28;20034;-80
2024/03/19 04:24:29;;;;;;;3.85;3.15;;;8.00;99.90;;;;;;4974958;28;20027;-80
2024/03/19 04:26:55;;;;;;;4.63;3.03;;;8.10;99.90;;;;;;4974555;28;20031;-80
2024/03/19 04:29:20;;;;;;;3.45;2.97;;;8.10;99.90;;;;;;4974715;28;20381;-80
2024/03/19 04:31:46;;;;;;;2.83;2.40;;;8.10;99.90;;;;;;4974076;28;20042;-80
2024/03/19 04:34:12;;;;;;;7.07;3.75;;;8.10;99.90;;;;;;4974928;28;20027;-80
2024/03/19 04:36:38;;;;;;;5.25;3.28;;;8.00;99.90;;;;;;4994901;28;20068;-81
2024/03/19 04:39:10;;;;;;;5.38;3.47;;;8.00;99.90;;;;;;4977493;28;20038;-81
2024/03/19 04:41:39;;;;;;;4.60;3.00;;;8.10;99.90;;;;;;4995273;28;20463;-81
2024/03/19 04:44:05;;;;;;;4.63;3.05;;;8.10;99.90;;;;;;4976679;28;20030;-82
2024/03/19 04:46:31;;;;;;;4.03;2.95;;;8.00;99.90;;;;;;4977946;28;20117;-82
2024/03/19 04:48:57;;;;;;;6.63;3.20;;;8.00;99.90;;;;;;4994654;28;20081;-82
2024/03/19 04:51:23;;;;;;;5.88;3.10;;;7.90;99.90;;;;;;4993899;28;20033;-82
2024/03/19 04:53:49;;;;;;;5.57;2.72;;;7.90;99.90;;;;;;4994355;28;20034;-83
2024/03/19 04:56:14;;;;;;;4.60;2.55;;;7.80;99.90;;;;;;4993956;28;20022;-82
2024/03/19 04:58:40;;;;;;;3.60;2.42;;;7.80;99.90;;;;;;4993575;28;20472;-81
2024/03/19 05:01:05;;;;;;;3.45;2.70;;;7.80;99.90;;;;;;4993462;28;20057;-80
2024/03/19 05:03:31;;;;;;;3.47;2.50;;;7.80;99.90;;;;;;4994794;28;20421;-82
2024/03/19 05:05:57;;;;;;;4.15;2.78;;;7.80;99.90;;;;;;4993271;28;20199;-81
2024/03/19 05:08:23;;;;;;;3.67;2.38;;;7.70;99.90;;;;;;4993368;28;20037;-81
2024/03/19 05:10:49;;;;;;;3.35;2.40;;;7.50;99.90;;;;;;4993300;28;20022;-81
2024/03/19 05:13:14;;;;;;;3.42;2.33;;;7.50;99.90;;;;;;4993359;28;20026;-81
2024/03/19 05:15:40;;;;;;;2.42;2.03;;;7.60;99.90;;;;;;4993380;28;20486;-80
2024/03/19 05:18:07;;;;;;;2.60;1.80;;;7.50;99.90;;;;;;4993083;28;20042;-80
2024/03/19 05:20:34;;;;;;;4.97;2.60;;;7.50;99.90;;;;;;4993518;28;20057;-81
2024/03/19 05:22:59;;;;;;;5.82;2.22;;;7.50;99.90;;;;;;4994391;28;20069;-80
2024/03/19 05:25:25;;;;;;;3.08;2.20;;;7.50;99.90;;;;;;4993508;28;20054;-79
2024/03/19 05:27:52;;;;;;;4.35;2.45;;;7.50;99.90;;;;;;4992651;28;20033;-79
2024/03/19 05:30:18;;;;;;;3.95;2.33;;;7.40;99.90;;;;;;4994413;28;20025;-81
2024/03/19 05:32:44;;;;;;;2.95;2.25;;;7.50;99.90;;;;;;4993312;28;20026;-80
2024/03/19 05:35:10;;;;;;;4.53;2.40;;;7.50;99.90;;;;;;4994500;28;20483;-81
2024/03/19 05:37:35;;;;;;;4.38;2.30;;;7.60;99.90;;;;;;4993126;28;20034;-82
2024/03/19 05:40:01;;;;;;;3.08;2.25;;;7.60;99.90;;;;;;4992827;28;20038;-81
2024/03/19 05:42:27;;;;;;;5.07;2.80;;;7.60;99.90;;;;;;4993305;28;20420;-81
2024/03/19 05:44:55;;;;;;;4.78;2.38;;;7.50;99.90;;;;;;4992826;28;20026;-81
2024/03/19 05:47:20;;;;;;;3.03;2.03;;;7.40;99.90;;;;;;4994222;28;20110;-81
2024/03/19 05:49:46;;;;;;;3.55;2.30;;;7.40;99.90;;;;;;4993744;28;20054;-81
2024/03/19 05:52:12;;;;;;;4.13;2.45;;;7.40;99.90;;;;;;4993257;28;20054;-81
2024/03/19 05:54:37;;;;;;;4.28;2.45;;;7.50;99.90;;;;;;4993889;28;20064;-81
2024/03/19 05:57:03;;;;;;;5.25;2.55;;;7.50;99.90;;;;;;4996567;28;20034;-79
2024/03/19 05:59:29;;;;;;;2.28;1.77;;;7.50;99.90;;;;;;4996931;28;20049;-79
2024/03/19 06:01:55;;;;;;;3.28;2.00;;;7.50;99.90;;;;;;4997153;28;20089;-80
2024/03/19 06:04:21;;;;;;;7.00;2.63;;;7.50;99.90;;;;;;4996640;28;20042;-81
2024/03/19 06:06:46;;;;;;;3.75;3.10;;;7.40;99.90;;;;;;4996349;28;20472;-80
2024/03/19 06:09:12;;;;;;;6.22;2.38;;;7.40;99.90;;;;;;4997410;28;20022;-81
2024/03/19 06:11:37;;;;;;;4.70;2.53;;;7.40;99.90;;;;;;4996606;28;20030;-80
2024/03/19 06:14:03;;;;;;;3.63;2.28;;;7.40;99.90;;;;;;4997184;28;20487;-80
2024/03/19 06:16:29;;;;;;;2.80;2.00;;;7.40;99.90;;;;;;4998916;28;20125;-79
2024/03/19 06:18:55;;;;;;;3.95;2.53;;;7.40;99.90;;;;;;5001325;28;20033;-82
2024/03/19 06:21:21;;;;;;;3.55;2.22;;;7.40;99.90;;;;;;5004942;28;20090;-82
2024/03/19 06:23:46;;;;;;;3.13;2.03;;;7.50;99.90;;;;;;5001134;28;20034;-81
2024/03/19 06:26:13;;;;;;;3.83;2.20;;;7.50;99.90;;;;;;4999504;28;20026;-83
2024/03/19 06:28:39;;;;;;;4.22;2.22;;;7.60;99.90;;;;;;4996181;28;20038;-82
2024/03/19 06:31:05;;;;;;;4.03;2.35;;;7.50;99.90;;;;;;4997546;28;20030;-80
2024/03/19 06:33:31;;;;;;;3.95;2.90;;;7.60;99.90;;;;;;4980395;28;20030;-80
2024/03/19 06:35:56;;;;;;;5.30;3.30;;;7.70;99.90;;;;;;4981299;28;20065;-83
2024/03/19 06:38:22;;;;;;;5.75;3.28;;;7.80;99.90;;;;;;4982342;28;20034;-83
2024/03/19 06:40:48;;;;;;;4.22;3.20;;;8.00;99.90;;;;;;4980754;28;20037;-83
2024/03/19 06:43:13;;;;;;;6.18;3.60;;;7.90;99.90;;;;;;4980599;28;20026;-83
2024/03/19 06:45:39;;;;;;;5.25;3.60;;;8.00;99.90;;;;;;4980352;28;20134;-84
2024/03/19 06:48:05;;;;;;;5.55;4.00;;;8.10;99.90;;;;;;4980239;28;20117;-83
2024/03/19 06:50:31;;;;;;;5.82;4.30;;;8.10;99.90;;;;;;4980389;28;20033;-84
2024/03/19 06:52:57;;;;;;;6.50;4.40;;;8.20;99.90;;;;;;4979159;28;20039;-84
2024/03/19 06:55:23;;;;;;;7.88;4.32;;;8.20;99.90;;;;;;4979904;28;20378;-84
2024/03/19 06:57:49;;;;;;;7.38;4.53;;;8.30;99.90;;;;;;4996668;28;20066;-84
2024/03/19 07:00:18;;;;;;;6.18;3.90;;;8.30;99.90;;;;;;4979908;28;20084;-84
2024/03/19 07:02:45;;;;;;;7.07;4.22;;;8.40;99.90;;;;;;4979885;28;20081;-84
2024/03/19 07:05:12;;;;;;;8.07;4.30;;;8.40;99.90;;;;;;4979597;28;20030;-85
2024/03/19 07:07:41;;;;;;;7.93;4.70;;;8.50;99.90;;;;;;4996039;28;20038;-84
2024/03/19 07:10:07;;;;;;;7.78;5.20;;;8.50;99.90;;;;;;4979109;28;20479;-84
2024/03/19 07:12:33;;;;;;;7.15;4.85;;;8.50;99.90;;;;;;4979965;28;20026;-85
2024/03/19 07:15:00;;;;;;;10.23;5.13;;;8.60;99.90;;;;;;4979114;28;20033;-84
2024/03/19 07:17:26;;;;;;;7.38;4.05;;;8.60;99.90;;;;;;4979584;28;20049;-84
2024/03/19 07:19:54;;;;;;;5.32;3.25;;;8.70;99.90;;;;;;4979026;28;20026;-84
2024/03/19 07:22:19;;;;;;;5.85;3.35;;;8.70;99.90;;;;;;4979705;28;20037;-84
2024/03/19 07:24:47;;;;;;;4.75;3.58;;;8.70;99.90;;;;;;4979270;28;20120;-84
2024/03/19 07:27:13;;;;;;;6.40;4.05;;;8.80;99.90;;;;;;4996472;28;20026;-84
2024/03/19 07:29:38;;;;;;;6.95;4.28;;;8.90;99.90;;;;;;4996823;28;20026;-84
2024/03/19 07:32:04;;;;;;;6.53;3.45;;;9.00;99.90;;;;;;4978892;28;20058;-84
2024/03/19 07:34:29;;;;;;;4.40;3.05;;;9.00;99.90;;;;;;4978896;28;20061;-85
2024/03/19 07:36:55;;;;;;;5.05;3.45;;;9.00;99.90;;;;;;4995999;28;20034;-84
2024/03/19 07:39:21;;;;;;;6.10;3.35;;;9.00;99.90;;;;;;4996300;28;20030;-84
2024/03/19 07:41:47;;;;;;;5.55;3.35;;;9.00;99.90;;;;;;4978567;28;20121;-82
2024/03/19 07:44:13;;;;;;;4.15;3.00;;;9.10;99.90;;;;;;4996026;28;20087;-83
2024/03/19 07:46:39;;;;;;;5.25;3.50;;;9.20;99.90;;;;;;4978941;28;20037;-84
2024/03/19 07:49:05;;;;;;;4.75;2.85;;;9.30;99.90;;;;;;4978320;28;20035;-84
2024/03/19 07:51:30;;;;;;;3.15;2.30;;;9.30;99.90;;;;;;4978882;28;20030;-84
2024/03/19 07:53:56;;;;;;;4.20;3.00;;;9.40;99.90;;;;;;4995513;28;20056;-84
2024/03/19 07:56:22;;;;;;;4.53;3.10;;;9.50;99.90;;;;;;4978790;28;20424;-83
2024/03/19 07:58:48;;;;;;;5.43;3.40;;;9.50;99.90;;;;;;4978635;28;20037;-82
2024/03/19 08:01:14;;;;;;;4.53;3.05;;;9.50;99.90;;;;;;4978812;28;20034;-83
2024/03/19 08:03:39;;;;;;;6.38;3.67;;;9.60;99.90;;;;;;4995767;28;20018;-83
2024/03/19 08:06:05;;;;;;;5.63;3.45;;;9.70;99.90;;;;;;4995082;28;20042;-84
2024/03/19 08:08:31;;;;;;;5.72;3.58;;;9.70;99.90;;;;;;4978025;28;20124;-84
2024/03/19 08:10:58;;;;;;;11.88;6.82;;;9.70;99.90;;;;;;4995250;28;20062;-84
2024/03/19 08:13:24;;;;;;;11.15;6.72;;;9.80;99.90;;;;;;4978305;28;20030;-84
2024/03/19 08:15:49;;;;;;;7.85;4.40;;;9.80;99.90;;;;;;4995241;28;20357;-83
2024/03/19 08:18:15;;;;;;;5.88;3.75;;;9.90;99.90;;;;;;4995401;28;20053;-85
2024/03/19 08:20:41;;;;;;;6.53;3.72;;;10.00;99.90;;;;;;4978597;28;20027;-84
2024/03/19 08:23:06;;;;;;;5.78;3.88;;;10.10;99.90;;;;;;4977910;28;20026;-85
2024/03/19 08:25:33;;;;;;;6.13;4.22;;;10.20;99.90;;;;;;4978168;28;20146;-85
2024/03/19 08:27:58;;;;;;;7.05;4.50;;;10.30;99.90;;;;;;4977881;28;20030;-85
2024/03/19 08:30:24;;;;;;;6.50;4.60;;;10.40;99.90;;;;;;4978403;28;20073;-86
2024/03/19 08:32:53;;;;;;;6.60;4.63;;;10.40;99.90;;;;;;4977562;28;20030;-81
2024/03/19 08:35:19;;;;;;;8.15;4.95;;;10.50;99.90;;;;;;4974873;28;20062;-85
2024/03/19 08:37:46;;;;;;;8.52;4.40;;;10.50;99.90;;;;;;4974893;28;20035;-88
2024/03/19 08:40:12;;;;;;;8.75;5.05;;;10.60;99.90;;;;;;4975550;28;20057;-89
2024/03/19 08:42:38;;;;;;;9.38;5.53;;;10.60;99.90;;;;;;4974861;28;20054;-88
2024/03/19 08:45:05;;;;;;;8.65;5.00;;;10.60;99.90;;;;;;4975506;28;20085;-88
2024/03/19 08:47:31;;;;;;;13.13;5.43;;;10.70;99.90;;;;;;4974837;28;20035;-88
2024/03/19 08:49:57;;;;;;;10.27;5.53;;;10.70;99.90;;;;;;4974236;28;20069;-88
2024/03/19 08:52:23;;;;;;;8.30;5.70;;;10.70;99.90;;;;;;4974888;28;20062;-88
2024/03/19 08:54:51;;;;;;;9.38;5.80;;;10.80;99.90;;;;;;4974655;28;20026;-87
2024/03/19 08:57:17;;;;;;;8.30;5.53;;;10.80;99.90;;;;;;4974910;28;20546;-85
2024/03/19 08:59:44;;;;;;;11.57;5.93;;;10.80;99.90;;;;;;4974612;28;20031;-84
2024/03/19 09:02:11;;;;;;;9.40;6.15;;;10.70;99.90;;;;;;4974277;28;20357;-86
2024/03/19 09:04:37;;;;;;;9.10;5.03;;;10.80;99.90;;;;;;4974657;28;20031;-86
2024/03/19 09:07:03;;;;;;;9.07;5.43;;;10.80;99.90;;;;;;4975298;28;20102;-88
2024/03/19 09:09:29;;;;;;;10.27;5.15;;;10.90;99.90;;;;;;4975546;28;20046;-86
2024/03/19 09:11:55;;;;;;;6.47;4.55;;;11.00;99.90;;;;;;4974883;28;20113;-85
2024/03/19 09:14:20;;;;;;;7.03;4.30;;;11.00;99.90;;;;;;4974245;28;20113;-84
2024/03/19 09:16:46;;;;;;;6.80;4.93;;;11.00;99.90;;;;;;4974534;28;20026;-85
2024/03/19 09:19:12;;;;;;;7.70;4.72;;;11.00;99.90;;;;;;4974861;28;20495;-84
2024/03/19 09:21:38;;;;;;;9.68;5.38;;;11.00;99.90;;;;;;4975157;28;20448;-85
2024/03/19 09:24:05;;;;;;;10.75;5.47;;;11.00;99.90;;;;;;4974794;28;20050;-84
2024/03/19 09:26:31;;;;;;;8.25;5.32;;;11.00;99.90;;;;;;4974391;28;20033;-85
2024/03/19 09:28:57;;;;;;;8.63;5.68;;;11.00;99.90;;;;;;4973856;28;20125;-84
2024/03/19 09:31:23;;;;;;;9.18;5.40;;;10.90;99.90;;;;;;4977748;28;20031;-85
2024/03/19 09:33:49;;;;;;;9.32;5.60;;;10.90;99.90;;;;;;4978906;28;20030;-86
2024/03/19 09:36:14;;;;;;;10.13;6.80;;;10.90;99.90;;;;;;4977276;28;20101;-85
2024/03/19 09:38:42;;;;;;;10.07;7.00;;;11.00;99.90;;;;;;4977951;28;20027;-85
2024/03/19 09:41:11;;;;;;;11.60;6.75;;;11.00;99.90;;;;;;4977820;28;20141;-85
2024/03/19 09:43:37;;;;;;;11.82;7.25;;;11.10;99.90;;;;;;4977825;28;20089;-85
2024/03/19 09:46:03;;;;;;;11.32;6.95;;;11.20;99.90;;;;;;4977702;28;20027;-86
2024/03/19 09:48:30;;;;;;;10.10;6.82;;;11.30;99.90;;;;;;4978229;28;20094;-86
2024/03/19 09:50:58;;;;;;;13.77;7.28;;;11.40;99.90;;;;;;4977602;28;20118;-85
2024/03/19 09:53:26;;;;;;;12.02;7.30;;;11.60;99.90;;;;;;4977970;28;20022;-85
2024/03/19 09:55:53;;;;;;;11.55;7.50;;;11.70;99.90;;;;;;4977663;28;20058;-86
2024/03/19 09:58:23;;;;;;;11.90;7.65;;;11.90;99.90;;;;;;4976976;28;20034;-85
2024/03/19 10:00:52;;;;;;;11.20;7.25;;;12.00;99.90;;;;;;4978675;28;20073;-86
2024/03/19 10:03:18;;;;;;;12.32;7.13;;;12.20;99.90;;;;;;4978189;28;20073;-85
2024/03/19 10:05:43;;;;;;;10.20;6.60;;;12.20;99.90;;;;;;4977365;28;20474;-85
2024/03/19 10:08:14;;;;;;;13.27;7.18;;;12.30;99.90;;;;;;4978044;28;20412;-85
2024/03/19 10:10:41;;;;;;;9.07;6.28;;;12.50;99.90;;;;;;4977884;28;20483;-85
2024/03/19 10:13:14;;;;;;;9.65;6.80;;;12.50;99.90;;;;;;4977012;28;20035;-85
2024/03/19 10:15:40;;;;;;;10.90;6.25;;;12.60;99.90;;;;;;4977299;28;20031;-86
2024/03/19 10:18:07;;;;;;;9.35;6.50;;;12.60;99.90;;;;;;4976628;28;20026;-86
2024/03/19 10:20:36;;;;;;;8.48;6.28;;;12.60;99.90;;;;;;4977731;28;20121;-86
2024/03/19 10:23:03;;;;;;;7.10;5.43;;;12.60;99.90;;;;;;4976669;28;20026;-85
2024/03/19 10:25:29;;;;;;;6.55;5.10;;;12.80;99.90;;;;;;4978264;28;20031;-86
2024/03/19 10:27:55;;;;;;;7.10;4.65;;;12.90;99.90;;;;;;4977274;28;20121;-86
2024/03/19 10:30:21;;;;;;;6.75;5.10;;;13.00;99.90;;;;;;4976597;28;20027;-85
2024/03/19 10:32:49;;;;;;;7.40;5.20;;;13.10;99.90;;;;;;4977983;28;20031;-85
2024/03/19 10:35:23;;;;;;;7.30;5.20;;;13.20;99.90;;;;;;4986992;28;20046;-85
2024/03/19 10:37:50;;;;;;;6.93;4.88;;;13.20;99.90;;;;;;4980588;28;20042;-86
2024/03/19 10:40:19;;;;;;;7.40;4.60;;;13.40;99.90;;;;;;4996556;28;20117;-86
2024/03/19 10:42:48;;;;;;;13.75;4.97;;;13.40;99.90;;;;;;4979935;28;20379;-86
2024/03/19 10:45:19;;;;;;;8.73;5.25;;;13.50;99.90;;;;;;4979644;28;20166;-86
2024/03/19 10:47:46;;;;;;;9.00;4.50;;;13.50;99.90;;;;;;4979892;28;20030;-86
2024/03/19 10:50:14;;;;;;;5.35;4.18;;;13.50;99.90;;;;;;4979044;28;20034;-85
2024/03/19 10:52:48;;;;;;;4.78;3.42;;;13.50;99.90;;;;;;4979827;28;20022;-86
2024/03/19 10:55:16;;;;;;;5.78;3.92;;;13.50;99.90;;;;;;4979607;28;20023;-85
2024/03/19 10:57:45;;;;;;;6.57;4.07;;;13.60;99.90;;;;;;4979872;28;20036;-85
2024/03/19 11:00:22;;;;;;;9.70;4.50;;;13.80;99.90;;;;;;4979472;28;20125;-86
2024/03/19 11:02:49;;;;;;;5.00;3.83;;;13.90;99.90;;;;;;4997336;28;20106;-86
2024/03/19 11:05:19;;;;;;;6.32;3.58;;;14.00;99.90;;;;;;4978884;28;20026;-84
2024/03/19 11:07:55;;;;;;;5.93;3.55;;;14.00;99.90;;;;;;4996946;28;20070;-86
2024/03/19 11:10:22;;;;;;;5.68;3.72;;;14.10;99.90;;;;;;4979022;28;20448;-85
2024/03/19 11:12:54;;;;;;;5.70;3.42;;;14.10;99.90;;;;;;4979701;28;20058;-85
2024/03/19 11:15:20;;;;;;;5.32;3.67;;;14.10;99.90;;;;;;4996221;28;20178;-85
2024/03/19 11:17:46;;;;;;;5.18;3.33;;;14.20;99.90;;;;;;4996980;28;20113;-85
2024/03/19 11:20:14;;;;;;;4.88;3.53;;;14.30;99.90;;;;;;4978920;28;20464;-85
2024/03/19 11:22:41;;;;;;;5.22;3.42;;;14.30;99.90;;;;;;4979575;28;20387;-85
2024/03/19 11:25:08;;;;;;;5.47;3.40;;;14.30;99.90;;;;;;4995806;28;20041;-85
2024/03/19 11:27:35;;;;;;;5.03;3.22;;;14.40;99.90;;;;;;4979081;28;20030;-86
2024/03/19 11:30:07;;;;;;;7.72;3.55;;;14.40;99.90;;;;;;4996273;28;20026;-83
2024/03/19 11:32:36;;;;;;;4.72;3.45;;;14.40;99.90;;;;;;4996381;28;20062;-85
2024/03/19 11:35:08;;;;;;;5.63;3.92;;;14.50;99.90;;;;;;4978725;28;20058;-84
2024/03/19 11:37:34;;;;;;;5.70;3.30;;;14.60;99.90;;;;;;4979246;28;20049;-86
2024/03/19 11:40:12;;;;;;;4.95;3.30;;;14.60;99.90;;;;;;4978907;28;20121;-85
2024/03/19 11:42:38;;;;;;;5.80;3.40;;;14.70;99.90;;;;;;4979576;28;20037;-86
2024/03/19 11:45:04;;;;;;;5.22;3.47;;;14.80;99.90;;;;;;4978774;28;20026;-85
2024/03/19 11:47:30;;;;;;;5.30;3.58;;;14.90;99.90;;;;;;4978818;28;20038;-85
2024/03/19 11:49:56;;;;;;;7.55;3.42;;;15.00;99.90;;;;;;4978870;28;20395;-86
2024/03/19 11:52:21;;;;;;;4.90;3.50;;;15.00;99.90;;;;;;4995869;28;20193;-85
2024/03/19 11:54:47;;;;;;;4.53;3.55;;;15.10;99.90;;;;;;4978790;28;20034;-86
2024/03/19 11:57:15;;;;;;;8.68;3.78;;;15.00;99.90;;;;;;4978003;28;20094;-86
2024/03/19 11:59:41;;;;;;;4.80;3.60;;;15.00;99.90;;;;;;4979098;28;20031;-86
2024/03/19 12:02:09;;;;;;;5.28;3.35;;;15.10;99.90;;;;;;4978897;28;20048;-85
2024/03/19 12:04:36;;;;;;;4.43;3.38;;;15.10;99.90;;;;;;4996523;28;20055;-86
2024/03/19 12:07:02;;;;;;;5.38;3.00;;;15.00;99.90;;;;;;4978725;28;20035;-86
2024/03/19 12:09:28;;;;;;;5.63;3.05;;;14.90;99.90;;;;;;4978714;28;20467;-85
2024/03/19 12:11:57;;;;;;;3.97;2.97;;;15.00;99.90;;;;;;4978672;28;20104;-86
2024/03/19 12:14:24;;;;;;;6.95;3.30;;;15.00;99.90;;;;;;4977909;28;20262;-86
2024/03/19 12:16:50;;;;;;;4.18;2.80;;;15.10;99.90;;;;;;4978597;28;20027;-85
2024/03/19 12:19:19;;;;;;;4.97;2.60;;;15.20;99.90;;;;;;4978032;28;20038;-85
2024/03/19 12:21:46;;;;;;;3.70;2.63;;;15.40;99.90;;;;;;4978392;28;20030;-85
2024/03/19 12:24:13;;;;;;;5.53;2.65;;;15.50;99.90;;;;;;4995090;28;20030;-85
2024/03/19 12:26:43;;;;;;;3.97;2.95;;;15.60;99.90;;;;;;4978050;28;20026;-85
2024/03/19 12:29:19;;;;;;;4.63;2.05;;;15.70;99.90;;;;;;4994902;28;20095;-85
2024/03/19 12:31:59;;;;;;;3.45;1.85;;;15.80;99.90;;;;;;4977834;28;20080;-85
2024/03/19 12:34:38;;;;;;;3.22;2.00;;;15.90;99.90;;;;;;4977179;28;20061;-85
2024/03/19 12:37:15;;;;;;;3.40;2.63;;;16.00;99.90;;;;;;4995478;28;20470;-85
2024/03/19 12:39:41;;;;;;;4.25;2.10;;;16.20;99.90;;;;;;4978001;28;20468;-85
2024/03/19 12:42:11;;;;;;;4.15;2.00;;;16.40;99.90;;;;;;4977360;28;20057;-85
2024/03/19 12:44:41;;;;;;;2.45;1.77;;;16.50;99.90;;;;;;4978339;28;20053;-85
2024/03/19 12:47:12;;;;;;;3.10;1.88;;;16.70;99.90;;;;;;4977543;28;20087;-85
2024/03/19 12:49:39;;;;;;;3.67;1.73;;;16.80;99.90;;;;;;4994993;28;20414;-85